createdAt,value
2023-01-07T00:00:22.701Z,100.00
2023-01-07T00:02:52.522Z,100.00
2023-01-07T00:05:20.015Z,100.00
2023-01-07T00:07:47.527Z,100.00
2023-01-07T00:10:15.139Z,100.00
2023-01-07T00:12:42.630Z,100.00
2023-01-07T00:15:12.223Z,100.00
2023-01-07T00:17:39.759Z,100.00
2023-01-07T00:20:07.558Z,100.00
2023-01-07T00:22:35.014Z,100.00
2023-01-07T00:25:02.571Z,100.00
2023-01-07T00:27:30.100Z,100.00
2023-01-07T00:29:57.599Z,100.00
2023-01-07T00:32:46.485Z,100.00
2023-01-07T00:35:23.031Z,100.00
2023-01-07T00:37:50.581Z,100.00
2023-01-07T00:40:18.213Z,100.00
2023-01-07T00:43:01.615Z,100.00
2023-01-07T00:45:29.892Z,100.00
2023-01-07T00:47:59.067Z,100.00
2023-01-07T00:50:27.269Z,100.00
2023-01-07T00:52:54.915Z,100.00
2023-01-07T00:55:22.554Z,100.00
2023-01-07T00:57:50.063Z,100.00
2023-01-07T01:00:18.207Z,100.00
2023-01-07T01:02:45.900Z,100.00
2023-01-07T01:05:14.798Z,100.00
2023-01-07T01:07:42.298Z,100.00
2023-01-07T01:10:11.034Z,100.00
2023-01-07T01:12:38.663Z,100.00
2023-01-07T01:15:07.412Z,100.00
2023-01-07T01:17:35.003Z,100.00
2023-01-07T01:20:02.553Z,100.00
2023-01-07T01:22:31.462Z,100.00
2023-01-07T01:24:58.933Z,100.00
2023-01-07T01:27:26.445Z,100.00
2023-01-07T01:29:53.980Z,100.00
2023-01-07T01:32:21.511Z,100.00
2023-01-07T01:34:48.981Z,100.00
2023-01-07T01:37:16.491Z,100.00
2023-01-07T01:39:45.349Z,100.00
2023-01-07T01:42:14.159Z,100.00
2023-01-07T01:44:45.324Z,100.00
2023-01-07T01:47:14.822Z,100.00
2023-01-07T01:49:42.617Z,100.00
2023-01-07T01:52:11.375Z,100.00
2023-01-07T01:54:38.935Z,100.00
2023-01-07T01:57:07.863Z,100.00
2023-01-07T01:59:36.033Z,100.00
2023-01-07T02:02:03.961Z,100.00
2023-01-07T02:04:31.497Z,100.00
2023-01-07T02:07:02.061Z,100.00
2023-01-07T02:09:29.517Z,100.00
2023-01-07T02:11:59.609Z,100.00
2023-01-07T02:14:32.793Z,100.00
2023-01-07T02:17:01.085Z,100.00
2023-01-07T02:19:49.474Z,100.00
2023-01-07T02:22:19.683Z,100.00
2023-01-07T02:25:01.037Z,100.00
2023-01-07T02:27:33.439Z,100.00
2023-01-07T02:30:19.637Z,100.00
2023-01-07T02:32:54.968Z,100.00
2023-01-07T02:35:25.958Z,100.00
2023-01-07T02:37:55.744Z,100.00
2023-01-07T02:40:23.735Z,100.00
2023-01-07T02:43:00.618Z,100.00
2023-01-07T02:45:28.673Z,100.00
2023-01-07T02:47:57.956Z,100.00
2023-01-07T02:50:25.479Z,100.00
2023-01-07T02:52:52.991Z,100.00
2023-01-07T02:55:21.525Z,100.00
2023-01-07T02:58:00.330Z,100.00
2023-01-07T03:00:32.377Z,100.00
2023-01-07T03:03:08.170Z,100.00
2023-01-07T03:05:41.617Z,100.00
2023-01-07T03:08:14.352Z,100.00
2023-01-07T03:10:43.871Z,100.00
2023-01-07T03:13:12.714Z,100.00
2023-01-07T03:15:41.225Z,100.00
2023-01-07T03:18:11.801Z,100.00
2023-01-07T03:20:40.087Z,100.00
2023-01-07T03:23:08.122Z,100.00
2023-01-07T03:25:36.261Z,100.00
2023-01-07T03:28:03.875Z,100.00
2023-01-07T03:30:31.362Z,100.00
2023-01-07T03:32:59.602Z,100.00
2023-01-07T03:35:28.490Z,100.00
2023-01-07T03:37:56.008Z,100.00
2023-01-07T03:40:23.492Z,100.00
2023-01-07T03:42:49.992Z,100.00
2023-01-07T03:45:18.618Z,100.00
2023-01-07T03:47:47.075Z,100.00
2023-01-07T03:50:14.686Z,100.00
2023-01-07T03:52:43.696Z,100.00
2023-01-07T03:55:11.441Z,100.00
2023-01-07T03:57:38.914Z,100.00
2023-01-07T04:00:07.228Z,100.00
2023-01-07T04:02:34.750Z,100.00
2023-01-07T04:05:02.423Z,100.00
2023-01-07T04:07:29.982Z,100.00
2023-01-07T04:09:58.815Z,100.00
2023-01-07T04:12:26.325Z,100.00
2023-01-07T04:14:53.857Z,100.00
2023-01-07T04:17:21.344Z,100.00
2023-01-07T04:19:48.879Z,100.00
2023-01-07T04:22:16.511Z,100.00
2023-01-07T04:24:44.044Z,100.00
2023-01-07T04:27:12.914Z,100.00
2023-01-07T04:29:40.461Z,100.00
2023-01-07T04:32:07.950Z,100.00
2023-01-07T04:34:35.436Z,100.00
2023-01-07T04:37:02.924Z,100.00
2023-01-07T04:39:30.386Z,100.00
2023-01-07T04:41:57.860Z,100.00
2023-01-07T04:44:26.723Z,100.00
2023-01-07T04:46:54.272Z,100.00
2023-01-07T04:49:21.800Z,100.00
2023-01-07T04:51:49.459Z,100.00
2023-01-07T04:54:16.919Z,100.00
2023-01-07T04:56:44.473Z,100.00
2023-01-07T04:59:11.998Z,100.00
2023-01-07T05:01:40.868Z,100.00
2023-01-07T05:04:08.439Z,100.00
2023-01-07T05:06:36.017Z,100.00
2023-01-07T05:09:03.487Z,100.00
2023-01-07T05:11:30.957Z,100.00
2023-01-07T05:14:00.253Z,100.00
2023-01-07T05:16:27.881Z,100.00
2023-01-07T05:18:56.766Z,100.00
2023-01-07T05:21:24.457Z,100.00
2023-01-07T05:23:52.098Z,100.00
2023-01-07T05:26:19.643Z,100.00
2023-01-07T05:28:47.151Z,100.00
2023-01-07T05:31:14.744Z,100.00
2023-01-07T05:33:42.317Z,100.00
2023-01-07T05:36:11.235Z,100.00
2023-01-07T05:38:38.723Z,100.00
2023-01-07T05:41:06.226Z,100.00
2023-01-07T05:43:33.736Z,100.00
2023-01-07T05:46:01.293Z,100.00
2023-01-07T05:48:28.871Z,100.00
2023-01-07T05:50:56.329Z,100.00
2023-01-07T05:53:25.140Z,100.00
2023-01-07T05:55:56.452Z,100.00
2023-01-07T05:58:24.010Z,100.00
2023-01-07T06:00:51.603Z,100.00
2023-01-07T06:03:19.585Z,100.00
2023-01-07T06:05:47.203Z,100.00
2023-01-07T06:08:14.768Z,100.00
2023-01-07T06:10:44.274Z,100.00
2023-01-07T06:13:11.781Z,100.00
2023-01-07T06:15:39.400Z,100.00
2023-01-07T06:18:06.959Z,100.00
2023-01-07T06:20:34.810Z,100.00
2023-01-07T06:23:02.794Z,100.00
2023-01-07T06:25:30.274Z,100.00
2023-01-07T06:27:59.188Z,100.00
2023-01-07T06:30:26.722Z,100.00
2023-01-07T06:32:54.739Z,100.00
2023-01-07T06:35:22.330Z,100.00
2023-01-07T06:37:49.863Z,100.00
2023-01-07T06:40:17.476Z,100.00
2023-01-07T06:42:45.035Z,100.00
2023-01-07T06:45:13.938Z,100.00
2023-01-07T06:47:41.517Z,100.00
2023-01-07T06:50:09.371Z,100.00
2023-01-07T06:52:36.845Z,100.00
2023-01-07T06:55:04.423Z,100.00
2023-01-07T06:57:31.965Z,100.00
2023-01-07T06:59:59.487Z,100.00
2023-01-07T07:02:28.904Z,100.00
2023-01-07T07:04:56.849Z,100.00
2023-01-07T07:07:24.300Z,100.00
2023-01-07T07:09:51.847Z,100.00
2023-01-07T07:12:19.472Z,100.00
2023-01-07T07:14:47.033Z,100.00
2023-01-07T07:17:14.518Z,100.00
2023-01-07T07:19:43.378Z,100.00
2023-01-07T07:22:10.835Z,100.00
2023-01-07T07:24:38.302Z,100.00
2023-01-07T07:27:05.794Z,100.00
2023-01-07T07:29:33.331Z,100.00
2023-01-07T07:32:00.862Z,100.00
2023-01-07T07:34:28.419Z,100.00
2023-01-07T07:36:57.322Z,100.00
2023-01-07T07:39:24.790Z,100.00
2023-01-07T07:41:52.286Z,100.00
2023-01-07T07:44:19.825Z,100.00
2023-01-07T07:46:47.518Z,100.00
2023-01-07T07:49:15.137Z,100.00
2023-01-07T07:51:42.581Z,100.00
2023-01-07T07:54:11.482Z,100.00
2023-01-07T07:56:38.959Z,100.00
2023-01-07T07:59:06.433Z,100.00
2023-01-07T08:01:36.450Z,100.00
2023-01-07T08:04:04.615Z,100.00
2023-01-07T08:06:34.171Z,100.00
2023-01-07T08:09:01.655Z,100.00
2023-01-07T08:11:30.513Z,100.00
2023-01-07T08:13:58.070Z,100.00
2023-01-07T08:16:25.626Z,100.00
2023-01-07T08:18:53.119Z,100.00
2023-01-07T08:21:20.654Z,100.00
2023-01-07T08:23:48.113Z,100.00
2023-01-07T08:26:15.636Z,100.00
2023-01-07T08:28:46.587Z,100.00
2023-01-07T08:31:14.366Z,100.00
2023-01-07T08:33:41.897Z,100.00
2023-01-07T08:36:21.997Z,100.00
2023-01-07T08:38:51.255Z,100.00
2023-01-07T08:41:18.777Z,100.00
2023-01-07T08:43:47.641Z,100.00
2023-01-07T08:46:15.204Z,100.00
2023-01-07T08:48:42.741Z,100.00
2023-01-07T08:51:10.212Z,100.00
2023-01-07T08:53:37.789Z,100.00
2023-01-07T08:56:05.426Z,100.00
2023-01-07T08:58:32.906Z,100.00
2023-01-07T09:01:03.465Z,100.00
2023-01-07T09:03:31.051Z,100.00
2023-01-07T09:05:58.650Z,100.00
2023-01-07T09:08:26.364Z,100.00
2023-01-07T09:10:53.841Z,100.00
2023-01-07T09:13:21.429Z,100.00
2023-01-07T09:15:49.002Z,100.00
2023-01-07T09:18:17.867Z,100.00
2023-01-07T09:20:45.620Z,100.00
2023-01-07T09:23:13.186Z,100.00
2023-01-07T09:25:40.732Z,100.00
2023-01-07T09:28:08.186Z,100.00
2023-01-07T09:30:35.740Z,100.00
2023-01-07T09:33:03.196Z,99.95
2023-01-07T09:35:32.107Z,100.00
2023-01-07T09:37:59.584Z,100.00
2023-01-07T09:40:28.462Z,95.95
2023-01-07T09:42:58.524Z,99.66
2023-01-07T09:45:26.617Z,94.98
2023-01-07T09:47:54.728Z,94.85
2023-01-07T09:50:25.261Z,92.58
2023-01-07T09:52:54.832Z,90.17
2023-01-07T09:55:23.945Z,93.51
2023-01-07T09:57:51.412Z,93.32
2023-01-07T10:00:19.882Z,92.06
2023-01-07T10:02:52.441Z,93.25
2023-01-07T10:05:28.259Z,96.45
2023-01-07T10:08:29.423Z,92.63
2023-01-07T10:10:47.916Z,90.82
2023-01-07T10:13:21.102Z,88.28
2023-01-07T10:15:52.161Z,89.31
2023-01-07T10:18:25.641Z,87.04
2023-01-07T10:20:55.160Z,90.15
2023-01-07T10:23:26.122Z,87.82
2023-01-07T10:25:53.945Z,87.63
2023-01-07T10:28:21.820Z,88.90
2023-01-07T10:30:51.745Z,87.12
2023-01-07T10:33:20.282Z,86.61
2023-01-07T10:35:48.058Z,88.07
2023-01-07T10:38:16.616Z,88.36
2023-01-07T10:40:46.926Z,84.21
2023-01-07T10:43:18.321Z,86.72
2023-01-07T10:45:49.391Z,84.79
2023-01-07T10:48:32.087Z,81.54
2023-01-07T10:51:03.127Z,82.23
2023-01-07T10:53:33.083Z,82.76
2023-01-07T10:56:04.420Z,81.66
2023-01-07T10:58:33.409Z,80.30
2023-01-07T11:01:00.946Z,80.03
2023-01-07T11:03:30.173Z,78.10
2023-01-07T11:05:58.672Z,78.91
2023-01-07T11:08:27.475Z,79.54
2023-01-07T11:10:55.026Z,82.55
2023-01-07T11:13:25.691Z,82.93
2023-01-07T11:15:53.726Z,78.80
2023-01-07T11:18:22.402Z,81.12
2023-01-07T11:20:50.386Z,79.14
2023-01-07T11:23:27.437Z,79.57
2023-01-07T11:25:55.304Z,81.10
2023-01-07T11:28:27.431Z,79.32
2023-01-07T11:30:56.975Z,77.96
2023-01-07T11:34:03.142Z,83.12
2023-01-07T11:36:13.522Z,76.43
2023-01-07T11:38:41.010Z,76.71
2023-01-07T11:41:13.367Z,76.89
2023-01-07T11:43:42.320Z,75.07
2023-01-07T11:46:21.306Z,73.95
2023-01-07T11:48:52.644Z,73.08
2023-01-07T11:51:20.615Z,71.86
2023-01-07T11:53:53.768Z,75.86
2023-01-07T11:56:25.033Z,75.66
2023-01-07T11:59:14.258Z,72.55
2023-01-07T12:01:42.467Z,71.06
2023-01-07T12:04:14.434Z,71.29
2023-01-07T12:06:42.291Z,72.74
2023-01-07T12:09:23.122Z,72.97
2023-01-07T12:11:50.692Z,71.55
2023-01-07T12:14:22.320Z,72.58
2023-01-07T12:16:50.753Z,71.97
2023-01-07T12:19:22.641Z,71.87
2023-01-07T12:21:59.012Z,71.63
2023-01-07T12:24:35.681Z,71.50
2023-01-07T12:27:04.774Z,71.27
2023-01-07T12:29:38.679Z,69.88
2023-01-07T12:32:10.606Z,69.02
2023-01-07T12:34:40.679Z,67.64
2023-01-07T12:37:11.419Z,68.25
2023-01-07T12:39:39.695Z,70.31
2023-01-07T12:42:09.371Z,69.95
2023-01-07T12:44:40.431Z,68.88
2023-01-07T12:47:30.868Z,68.54
2023-01-07T12:49:57.644Z,66.71
2023-01-07T12:52:28.689Z,67.37
2023-01-07T12:54:57.347Z,69.04
2023-01-07T12:57:26.262Z,68.79
2023-01-07T12:59:59.691Z,68.36
2023-01-07T13:02:29.860Z,69.80
2023-01-07T13:04:59.579Z,68.90
2023-01-07T13:07:29.018Z,68.81
2023-01-07T13:09:57.971Z,68.64
2023-01-07T13:12:47.508Z,69.29
2023-01-07T13:15:21.721Z,70.29
2023-01-07T13:17:49.493Z,71.08
2023-01-07T13:20:17.600Z,69.83
2023-01-07T13:22:45.963Z,69.86
2023-01-07T13:25:24.039Z,69.65
2023-01-07T13:27:58.769Z,69.42
2023-01-07T13:30:28.189Z,68.97
2023-01-07T13:33:04.295Z,69.04
2023-01-07T13:35:47.070Z,70.66
2023-01-07T13:38:18.759Z,71.84
2023-01-07T13:40:52.537Z,70.63
2023-01-07T13:43:23.619Z,71.73
2023-01-07T13:45:54.392Z,71.33
2023-01-07T13:48:22.585Z,71.09
2023-01-07T13:50:56.573Z,70.65
2023-01-07T13:53:32.363Z,69.53
2023-01-07T13:56:14.774Z,69.10
2023-01-07T13:58:44.678Z,70.84
2023-01-07T14:01:14.307Z,68.09
2023-01-07T14:03:43.224Z,71.12
2023-01-07T14:06:28.707Z,70.79
2023-01-07T14:08:57.578Z,69.84
2023-01-07T14:11:42.018Z,71.25
2023-01-07T14:14:11.254Z,71.46
2023-01-07T14:16:41.072Z,72.21
2023-01-07T14:19:10.398Z,72.99
2023-01-07T14:21:50.374Z,74.76
2023-01-07T14:24:27.582Z,75.43
2023-01-07T14:26:56.527Z,73.75
2023-01-07T14:29:31.924Z,73.95
2023-01-07T14:32:18.060Z,74.20
2023-01-07T14:34:50.622Z,73.75
2023-01-07T14:37:18.099Z,73.57
2023-01-07T14:39:46.074Z,74.37
2023-01-07T14:42:44.235Z,73.50
2023-01-07T14:45:30.730Z,76.09
2023-01-07T14:47:58.288Z,74.98
2023-01-07T14:50:29.614Z,76.51
2023-01-07T14:53:24.137Z,74.32
2023-01-07T14:56:03.086Z,76.71
2023-01-07T14:58:45.510Z,79.12
2023-01-07T15:01:28.010Z,79.62
2023-01-07T15:04:03.635Z,77.07
2023-01-07T15:06:33.157Z,78.83
2023-01-07T15:09:20.767Z,78.75
2023-01-07T15:12:06.124Z,78.02
2023-01-07T15:14:53.666Z,80.12
2023-01-07T15:17:21.776Z,78.70
2023-01-07T15:19:49.314Z,79.37
2023-01-07T15:22:22.529Z,77.59
2023-01-07T15:24:51.328Z,78.50
2023-01-07T15:27:20.394Z,81.79
2023-01-07T15:29:49.768Z,82.12
2023-01-07T15:32:20.136Z,79.16
2023-01-07T15:34:47.629Z,80.50
2023-01-07T15:37:15.402Z,81.47
2023-01-07T15:39:48.503Z,81.58
2023-01-07T15:42:16.319Z,81.21
2023-01-07T15:44:43.943Z,84.94
2023-01-07T15:47:31.091Z,81.51
2023-01-07T15:49:58.631Z,81.94
2023-01-07T15:52:26.690Z,81.39
2023-01-07T15:54:55.587Z,83.44
2023-01-07T15:57:24.311Z,84.30
2023-01-07T15:59:52.117Z,83.38
2023-01-07T16:02:22.166Z,82.45
2023-01-07T16:04:51.117Z,81.16
2023-01-07T16:07:22.826Z,83.91
2023-01-07T16:09:50.411Z,81.58
2023-01-07T16:12:24.986Z,81.76
2023-01-07T16:14:52.555Z,80.85
2023-01-07T16:17:20.851Z,79.57
2023-01-07T16:19:48.325Z,81.38
2023-01-07T16:22:16.410Z,81.79
2023-01-07T16:24:50.187Z,81.77
2023-01-07T16:27:17.873Z,82.12
2023-01-07T16:29:49.765Z,81.81
2023-01-07T16:32:18.447Z,81.52
2023-01-07T16:34:54.119Z,80.07
2023-01-07T16:37:21.581Z,81.96
2023-01-07T16:39:51.286Z,81.69
2023-01-07T16:42:23.411Z,81.87
2023-01-07T16:45:02.207Z,81.21
2023-01-07T16:47:30.271Z,78.97
2023-01-07T16:49:58.297Z,80.11
2023-01-07T16:52:27.721Z,78.76
2023-01-07T16:54:55.271Z,79.44
2023-01-07T16:57:28.276Z,78.09
2023-01-07T16:59:56.414Z,76.74
2023-01-07T17:02:27.922Z,74.68
2023-01-07T17:04:55.754Z,79.14
2023-01-07T17:07:23.775Z,78.86
2023-01-07T17:09:52.879Z,77.03
2023-01-07T17:12:29.917Z,79.40
2023-01-07T17:14:57.438Z,78.49
2023-01-07T17:17:30.012Z,77.27
2023-01-07T17:20:18.906Z,77.40
2023-01-07T17:22:47.170Z,76.11
2023-01-07T17:25:15.277Z,77.17
2023-01-07T17:27:44.458Z,76.34
2023-01-07T17:30:15.494Z,77.49
2023-01-07T17:32:44.499Z,76.42
2023-01-07T17:35:19.835Z,77.52
2023-01-07T17:37:47.393Z,78.02
2023-01-07T17:40:15.377Z,77.44
2023-01-07T17:43:00.360Z,78.88
2023-01-07T17:45:28.119Z,80.63
2023-01-07T17:47:58.739Z,76.87
2023-01-07T17:50:26.515Z,78.11
2023-01-07T17:52:54.472Z,77.23
2023-01-07T17:55:22.848Z,77.06
2023-01-07T17:57:50.323Z,77.30
2023-01-07T18:00:18.638Z,77.46
2023-01-07T18:02:46.242Z,77.11
2023-01-07T18:05:16.221Z,76.02
2023-01-07T18:07:45.061Z,76.40
2023-01-07T18:10:13.548Z,76.15
2023-01-07T18:12:40.382Z,76.38
2023-01-07T18:15:14.206Z,75.46
2023-01-07T18:17:41.723Z,73.65
2023-01-07T18:20:09.634Z,74.99
2023-01-07T18:22:37.081Z,76.40
2023-01-07T18:25:06.622Z,78.89
2023-01-07T18:27:34.153Z,78.90
2023-01-07T18:30:01.693Z,77.18
2023-01-07T18:32:29.261Z,78.97
2023-01-07T18:34:56.729Z,78.91
2023-01-07T18:37:24.252Z,80.70
2023-01-07T18:39:51.746Z,81.64
2023-01-07T18:42:20.623Z,82.62
2023-01-07T18:44:48.170Z,83.19
2023-01-07T18:47:15.643Z,82.98
2023-01-07T18:49:43.113Z,83.42
2023-01-07T18:52:12.217Z,86.61
2023-01-07T18:54:41.246Z,93.06
2023-01-07T18:57:08.728Z,94.37
2023-01-07T18:59:37.593Z,95.02
2023-01-07T19:02:06.637Z,91.37
2023-01-07T19:04:37.385Z,95.91
2023-01-07T19:07:04.899Z,94.43
2023-01-07T19:09:32.391Z,94.97
2023-01-07T19:11:59.842Z,97.42
2023-01-07T19:14:27.351Z,99.90
2023-01-07T19:16:56.817Z,100.00
2023-01-07T19:19:24.491Z,97.59
2023-01-07T19:21:51.993Z,98.46
2023-01-07T19:24:19.515Z,98.20
2023-01-07T19:26:48.329Z,100.00
2023-01-07T19:29:15.878Z,98.23
2023-01-07T19:31:45.522Z,96.23
2023-01-07T19:34:14.680Z,94.75
2023-01-07T19:36:46.549Z,98.85
2023-01-07T19:39:14.631Z,96.52
2023-01-07T19:41:42.884Z,97.77
2023-01-07T19:44:10.710Z,97.85
2023-01-07T19:46:38.304Z,97.38
2023-01-07T19:49:05.988Z,97.34
2023-01-07T19:51:35.179Z,93.77
2023-01-07T19:54:02.739Z,96.27
2023-01-07T19:56:30.839Z,94.31
2023-01-07T19:58:58.507Z,92.49
2023-01-07T20:01:26.764Z,92.73
2023-01-07T20:03:54.546Z,91.47
2023-01-07T20:06:23.032Z,90.68
2023-01-07T20:08:52.673Z,92.42
2023-01-07T20:11:20.159Z,90.96
2023-01-07T20:13:47.835Z,89.03
2023-01-07T20:16:16.169Z,87.49
2023-01-07T20:18:44.369Z,88.33
2023-01-07T20:21:12.033Z,92.48
2023-01-07T20:23:39.671Z,88.38
2023-01-07T20:26:10.255Z,84.92
2023-01-07T20:28:37.723Z,87.51
2023-01-07T20:31:05.491Z,84.37
2023-01-07T20:33:33.010Z,87.92
2023-01-07T20:36:00.728Z,88.27
2023-01-07T20:38:28.305Z,85.80
2023-01-07T20:40:55.849Z,83.50
2023-01-07T20:43:25.160Z,83.71
2023-01-07T20:45:52.719Z,82.58
2023-01-07T20:48:20.250Z,84.26
2023-01-07T20:50:47.710Z,83.81
2023-01-07T20:53:15.268Z,84.89
2023-01-07T20:55:42.840Z,83.14
2023-01-07T20:58:10.367Z,80.99
2023-01-07T21:00:41.016Z,81.64
2023-01-07T21:03:09.409Z,83.92
2023-01-07T21:05:38.401Z,81.23
2023-01-07T21:08:06.035Z,81.63
2023-01-07T21:10:33.624Z,80.28
2023-01-07T21:13:01.125Z,84.20
2023-01-07T21:15:28.581Z,82.81
2023-01-07T21:17:57.404Z,83.91
2023-01-07T21:20:24.878Z,83.43
2023-01-07T21:22:52.453Z,82.00
2023-01-07T21:25:20.040Z,84.64
2023-01-07T21:27:48.607Z,85.20
2023-01-07T21:30:17.624Z,82.43
2023-01-07T21:32:45.250Z,85.05
2023-01-07T21:35:14.459Z,84.59
2023-01-07T21:37:41.972Z,82.18
2023-01-07T21:40:09.972Z,80.89
2023-01-07T21:42:37.565Z,81.73
2023-01-07T21:45:05.510Z,84.16
2023-01-07T21:47:33.062Z,82.92
2023-01-07T21:50:00.582Z,81.80
2023-01-07T21:52:29.421Z,84.04
2023-01-07T21:54:57.070Z,82.66
2023-01-07T21:57:25.380Z,81.49
2023-01-07T21:59:52.889Z,83.46
2023-01-07T22:02:20.381Z,85.98
2023-01-07T22:04:48.347Z,86.20
2023-01-07T22:07:16.642Z,84.15
2023-01-07T22:09:45.815Z,89.29
2023-01-07T22:12:13.439Z,90.26
2023-01-07T22:14:41.000Z,87.82
2023-01-07T22:17:09.051Z,90.70
2023-01-07T22:19:36.547Z,93.16
2023-01-07T22:22:04.067Z,97.40
2023-01-07T22:24:32.522Z,96.71
2023-01-07T22:27:01.375Z,95.08
2023-01-07T22:29:29.048Z,96.82
2023-01-07T22:31:56.647Z,98.11
2023-01-07T22:34:24.252Z,95.90
2023-01-07T22:36:52.490Z,100.00
2023-01-07T22:39:20.911Z,96.54
2023-01-07T22:41:48.637Z,100.00
2023-01-07T22:44:17.869Z,99.58
2023-01-07T22:46:45.940Z,100.00
2023-01-07T22:49:13.557Z,100.00
2023-01-07T22:51:41.772Z,100.00
2023-01-07T22:54:09.282Z,100.00
2023-01-07T22:56:37.114Z,100.00
2023-01-07T22:59:04.657Z,100.00
2023-01-07T23:01:33.618Z,100.00
2023-01-07T23:04:01.215Z,97.50
2023-01-07T23:06:28.725Z,100.00
2023-01-07T23:08:56.249Z,100.00
2023-01-07T23:11:41.430Z,100.00
2023-01-07T23:14:08.951Z,100.00
2023-01-07T23:16:37.964Z,100.00
2023-01-07T23:19:05.564Z,100.00
2023-01-07T23:21:34.355Z,100.00
2023-01-07T23:24:01.899Z,100.00
2023-01-07T23:26:29.464Z,100.00
2023-01-07T23:28:57.079Z,100.00
2023-01-07T23:31:24.706Z,100.00
2023-01-07T23:33:53.628Z,100.00
2023-01-07T23:36:21.181Z,100.00
2023-01-07T23:38:48.700Z,100.00
2023-01-07T23:41:16.242Z,100.00
2023-01-07T23:43:43.727Z,100.00
2023-01-07T23:46:11.308Z,100.00
2023-01-07T23:48:39.065Z,100.00
2023-01-07T23:51:08.522Z,100.00
2023-01-07T23:53:36.242Z,100.00
2023-01-07T23:56:04.061Z,100.00
2023-01-07T23:58:31.851Z,100.00
